sensor_id;sensor_type;location;lat;lon;timestamp;P1;durP1;ratioP1;P2;durP2;ratioP2
61036;SDS011;72210;47.076;15.430;2023-12-14T00:02:28;0.60;;;0.50;;
61036;SDS011;72210;47.076;15.430;2023-12-14T00:04:55;0.90;;;0.70;;
61036;SDS011;72210;47.076;15.430;2023-12-14T00:07:24;0.75;;;0.60;;
61036;SDS011;72210;47.076;15.430;2023-12-14T00:09:51;0.70;;;0.60;;
61036;SDS011;72210;47.076;15.430;2023-12-14T00:12:18;0.60;;;0.50;;
61036;SDS011;72210;47.076;15.430;2023-12-14T00:14:47;0.70;;;0.60;;
61036;SDS011;72210;47.076;15.430;2023-12-14T00:17:14;0.63;;;0.60;;
61036;SDS011;72210;47.076;15.430;2023-12-14T00:19:44;0.60;;;0.60;;
61036;SDS011;72210;47.076;15.430;2023-12-14T00:22:12;0.60;;;0.60;;
61036;SDS011;72210;47.076;15.430;2023-12-14T00:24:39;0.60;;;0.60;;
61036;SDS011;72210;47.076;15.430;2023-12-14T00:27:06;0.73;;;0.60;;
61036;SDS011;72210;47.076;15.430;2023-12-14T00:29:34;0.90;;;0.70;;
61036;SDS011;72210;47.076;15.430;2023-12-14T00:32:01;0.63;;;0.50;;
61036;SDS011;72210;47.076;15.430;2023-12-14T00:34:29;0.70;;;0.60;;
61036;SDS011;72210;47.076;15.430;2023-12-14T00:36:58;0.93;;;0.70;;
61036;SDS011;72210;47.076;15.430;2023-12-14T00:39:25;0.50;;;0.50;;
61036;SDS011;72210;47.076;15.430;2023-12-14T00:41:52;0.65;;;0.60;;
61036;SDS011;72210;47.076;15.430;2023-12-14T00:44:20;0.60;;;0.60;;
61036;SDS011;72210;47.076;15.430;2023-12-14T00:46:47;0.68;;;0.57;;
61036;SDS011;72210;47.076;15.430;2023-12-14T00:49:15;0.50;;;0.50;;
61036;SDS011;72210;47.076;15.430;2023-12-14T00:51:42;0.63;;;0.52;;
61036;SDS011;72210;47.076;15.430;2023-12-14T00:54:11;0.80;;;0.60;;
61036;SDS011;72210;47.076;15.430;2023-12-14T00:56:38;0.63;;;0.52;;
61036;SDS011;72210;47.076;15.430;2023-12-14T00:59:05;0.60;;;0.50;;
61036;SDS011;72210;47.076;15.430;2023-12-14T01:01:33;0.50;;;0.50;;
61036;SDS011;72210;47.076;15.430;2023-12-14T01:04:00;0.70;;;0.60;;
61036;SDS011;72210;47.076;15.430;2023-12-14T01:06:28;0.70;;;0.60;;
61036;SDS011;72210;47.076;15.430;2023-12-14T01:08:55;0.70;;;0.60;;
61036;SDS011;72210;47.076;15.430;2023-12-14T01:11:24;0.60;;;0.50;;
61036;SDS011;72210;47.076;15.430;2023-12-14T01:13:51;0.82;;;0.70;;
61036;SDS011;72210;47.076;15.430;2023-12-14T01:16:19;0.60;;;0.57;;
61036;SDS011;72210;47.076;15.430;2023-12-14T01:18:47;0.70;;;0.60;;
61036;SDS011;72210;47.076;15.430;2023-12-14T01:21:15;0.50;;;0.50;;
61036;SDS011;72210;47.076;15.430;2023-12-14T01:23:44;0.60;;;0.50;;
61036;SDS011;72210;47.076;15.430;2023-12-14T01:26:11;0.60;;;0.57;;
61036;SDS011;72210;47.076;15.430;2023-12-14T01:28:40;0.60;;;0.50;;
61036;SDS011;72210;47.076;15.430;2023-12-14T01:31:08;0.63;;;0.55;;
61036;SDS011;72210;47.076;15.430;2023-12-14T01:33:35;0.60;;;0.50;;
61036;SDS011;72210;47.076;15.430;2023-12-14T01:36:03;0.60;;;0.60;;
61036;SDS011;72210;47.076;15.430;2023-12-14T01:38:31;0.90;;;0.70;;
61036;SDS011;72210;47.076;15.430;2023-12-14T01:40:59;0.60;;;0.52;;
61036;SDS011;72210;47.076;15.430;2023-12-14T01:43:26;0.70;;;0.60;;
61036;SDS011;72210;47.076;15.430;2023-12-14T01:45:55;0.60;;;0.50;;
61036;SDS011;72210;47.076;15.430;2023-12-14T01:48:22;0.63;;;0.52;;
61036;SDS011;72210;47.076;15.430;2023-12-14T01:50:49;0.75;;;0.65;;
61036;SDS011;72210;47.076;15.430;2023-12-14T01:53:16;0.50;;;0.50;;
61036;SDS011;72210;47.076;15.430;2023-12-14T01:55:44;0.60;;;0.60;;
61036;SDS011;72210;47.076;15.430;2023-12-14T01:58:11;0.63;;;0.50;;
61036;SDS011;72210;47.076;15.430;2023-12-14T02:00:39;0.63;;;0.60;;
61036;SDS011;72210;47.076;15.430;2023-12-14T02:03:13;0.65;;;0.60;;
61036;SDS011;72210;47.076;15.430;2023-12-14T02:05:41;0.63;;;0.60;;
61036;SDS011;72210;47.076;15.430;2023-12-14T02:08:08;0.60;;;0.60;;
61036;SDS011;72210;47.076;15.430;2023-12-14T02:10:36;0.50;;;0.50;;
61036;SDS011;72210;47.076;15.430;2023-12-14T02:13:03;0.60;;;0.50;;
61036;SDS011;72210;47.076;15.430;2023-12-14T02:15:30;0.63;;;0.52;;
61036;SDS011;72210;47.076;15.430;2023-12-14T02:17:58;0.60;;;0.52;;
61036;SDS011;72210;47.076;15.430;2023-12-14T02:20:27;0.65;;;0.60;;
61036;SDS011;72210;47.076;15.430;2023-12-14T02:22:57;0.57;;;0.50;;
61036;SDS011;72210;47.076;15.430;2023-12-14T02:25:24;0.90;;;0.70;;
61036;SDS011;72210;47.076;15.430;2023-12-14T02:27:52;0.80;;;0.60;;
61036;SDS011;72210;47.076;15.430;2023-12-14T02:30:20;0.70;;;0.60;;
61036;SDS011;72210;47.076;15.430;2023-12-14T02:32:47;0.70;;;0.60;;
61036;SDS011;72210;47.076;15.430;2023-12-14T02:35:14;0.60;;;0.50;;
61036;SDS011;72210;47.076;15.430;2023-12-14T02:37:41;0.63;;;0.60;;
61036;SDS011;72210;47.076;15.430;2023-12-14T02:40:10;0.73;;;0.60;;
61036;SDS011;72210;47.076;15.430;2023-12-14T02:42:38;0.60;;;0.50;;
61036;SDS011;72210;47.076;15.430;2023-12-14T02:45:06;0.60;;;0.50;;
61036;SDS011;72210;47.076;15.430;2023-12-14T02:47:35;0.60;;;0.50;;
61036;SDS011;72210;47.076;15.430;2023-12-14T02:50:03;0.60;;;0.50;;
61036;SDS011;72210;47.076;15.430;2023-12-14T02:52:31;0.73;;;0.60;;
61036;SDS011;72210;47.076;15.430;2023-12-14T02:54:58;0.60;;;0.50;;
61036;SDS011;72210;47.076;15.430;2023-12-14T02:57:30;0.60;;;0.50;;
61036;SDS011;72210;47.076;15.430;2023-12-14T02:59:58;0.50;;;0.50;;
61036;SDS011;72210;47.076;15.430;2023-12-14T03:02:28;0.70;;;0.60;;
61036;SDS011;72210;47.076;15.430;2023-12-14T03:04:56;0.70;;;0.60;;
61036;SDS011;72210;47.076;15.430;2023-12-14T03:07:24;0.60;;;0.52;;
61036;SDS011;72210;47.076;15.430;2023-12-14T03:09:51;0.73;;;0.60;;
61036;SDS011;72210;47.076;15.430;2023-12-14T03:12:18;0.50;;;0.50;;
61036;SDS011;72210;47.076;15.430;2023-12-14T03:14:47;0.80;;;0.60;;
61036;SDS011;72210;47.076;15.430;2023-12-14T03:17:14;0.70;;;0.55;;
61036;SDS011;72210;47.076;15.430;2023-12-14T03:19:42;0.70;;;0.60;;
61036;SDS011;72210;47.076;15.430;2023-12-14T03:22:09;0.70;;;0.55;;
61036;SDS011;72210;47.076;15.430;2023-12-14T03:24:37;0.73;;;0.60;;
61036;SDS011;72210;47.076;15.430;2023-12-14T03:27:05;0.50;;;0.50;;
61036;SDS011;72210;47.076;15.430;2023-12-14T03:29:32;0.60;;;0.60;;
61036;SDS011;72210;47.076;15.430;2023-12-14T03:32:02;0.70;;;0.60;;
61036;SDS011;72210;47.076;15.430;2023-12-14T03:34:32;0.60;;;0.50;;
61036;SDS011;72210;47.076;15.430;2023-12-14T03:36:59;0.60;;;0.50;;
61036;SDS011;72210;47.076;15.430;2023-12-14T03:39:26;0.70;;;0.60;;
61036;SDS011;72210;47.076;15.430;2023-12-14T03:41:54;0.70;;;0.60;;
61036;SDS011;72210;47.076;15.430;2023-12-14T03:44:21;0.60;;;0.50;;
61036;SDS011;72210;47.076;15.430;2023-12-14T03:46:48;0.52;;;0.50;;
61036;SDS011;72210;47.076;15.430;2023-12-14T03:49:17;0.70;;;0.55;;
61036;SDS011;72210;47.076;15.430;2023-12-14T03:51:45;0.90;;;0.70;;
61036;SDS011;72210;47.076;15.430;2023-12-14T03:54:12;0.60;;;0.50;;
61036;SDS011;72210;47.076;15.430;2023-12-14T03:56:40;0.65;;;0.50;;
61036;SDS011;72210;47.076;15.430;2023-12-14T03:59:07;0.65;;;0.55;;
61036;SDS011;72210;47.076;15.430;2023-12-14T04:01:36;0.60;;;0.50;;
61036;SDS011;72210;47.076;15.430;2023-12-14T04:04:05;0.60;;;0.50;;
61036;SDS011;72210;47.076;15.430;2023-12-14T04:06:34;0.70;;;0.50;;
61036;SDS011;72210;47.076;15.430;2023-12-14T04:09:01;0.70;;;0.60;;
61036;SDS011;72210;47.076;15.430;2023-12-14T04:11:30;0.65;;;0.50;;
61036;SDS011;72210;47.076;15.430;2023-12-14T04:13:58;0.75;;;0.60;;
61036;SDS011;72210;47.076;15.430;2023-12-14T04:16:25;0.70;;;0.60;;
61036;SDS011;72210;47.076;15.430;2023-12-14T04:18:52;0.63;;;0.55;;
61036;SDS011;72210;47.076;15.430;2023-12-14T04:21:20;0.60;;;0.50;;
61036;SDS011;72210;47.076;15.430;2023-12-14T04:23:56;0.70;;;0.52;;
61036;SDS011;72210;47.076;15.430;2023-12-14T04:26:23;0.65;;;0.50;;
61036;SDS011;72210;47.076;15.430;2023-12-14T04:28:50;0.65;;;0.50;;
61036;SDS011;72210;47.076;15.430;2023-12-14T04:31:18;0.70;;;0.60;;
61036;SDS011;72210;47.076;15.430;2023-12-14T04:33:45;0.60;;;0.50;;
61036;SDS011;72210;47.076;15.430;2023-12-14T04:36:12;0.68;;;0.55;;
61036;SDS011;72210;47.076;15.430;2023-12-14T04:38:40;0.70;;;0.60;;
61036;SDS011;72210;47.076;15.430;2023-12-14T04:41:09;0.70;;;0.52;;
61036;SDS011;72210;47.076;15.430;2023-12-14T04:43:39;0.80;;;0.63;;
61036;SDS011;72210;47.076;15.430;2023-12-14T04:46:06;0.60;;;0.50;;
61036;SDS011;72210;47.076;15.430;2023-12-14T04:48:33;0.60;;;0.50;;
61036;SDS011;72210;47.076;15.430;2023-12-14T04:51:01;0.70;;;0.60;;
61036;SDS011;72210;47.076;15.430;2023-12-14T04:53:28;0.73;;;0.60;;
61036;SDS011;72210;47.076;15.430;2023-12-14T04:55:56;0.85;;;0.65;;
61036;SDS011;72210;47.076;15.430;2023-12-14T04:58:26;0.73;;;0.63;;
61036;SDS011;72210;47.076;15.430;2023-12-14T05:00:53;0.60;;;0.50;;
61036;SDS011;72210;47.076;15.430;2023-12-14T05:03:21;0.70;;;0.60;;
61036;SDS011;72210;47.076;15.430;2023-12-14T05:05:48;0.70;;;0.60;;
61036;SDS011;72210;47.076;15.430;2023-12-14T05:08:15;0.63;;;0.60;;
61036;SDS011;72210;47.076;15.430;2023-12-14T05:10:43;0.60;;;0.50;;
61036;SDS011;72210;47.076;15.430;2023-12-14T05:13:10;0.70;;;0.60;;
61036;SDS011;72210;47.076;15.430;2023-12-14T05:15:39;0.70;;;0.60;;
61036;SDS011;72210;47.076;15.430;2023-12-14T05:18:06;0.55;;;0.50;;
61036;SDS011;72210;47.076;15.430;2023-12-14T05:20:34;0.50;;;0.50;;
61036;SDS011;72210;47.076;15.430;2023-12-14T05:23:01;0.60;;;0.50;;
61036;SDS011;72210;47.076;15.430;2023-12-14T05:25:29;0.60;;;0.50;;
61036;SDS011;72210;47.076;15.430;2023-12-14T05:27:57;0.60;;;0.50;;
61036;SDS011;72210;47.076;15.430;2023-12-14T05:30:24;0.80;;;0.60;;
61036;SDS011;72210;47.076;15.430;2023-12-14T05:32:53;0.60;;;0.50;;
61036;SDS011;72210;47.076;15.430;2023-12-14T05:35:20;0.60;;;0.50;;
61036;SDS011;72210;47.076;15.430;2023-12-14T05:37:47;0.70;;;0.60;;
61036;SDS011;72210;47.076;15.430;2023-12-14T05:40:15;0.50;;;0.50;;
61036;SDS011;72210;47.076;15.430;2023-12-14T05:42:42;0.70;;;0.60;;
61036;SDS011;72210;47.076;15.430;2023-12-14T05:45:10;0.50;;;0.50;;
61036;SDS011;72210;47.076;15.430;2023-12-14T05:47:38;0.70;;;0.50;;
61036;SDS011;72210;47.076;15.430;2023-12-14T05:50:08;0.75;;;0.60;;
61036;SDS011;72210;47.076;15.430;2023-12-14T05:52:36;0.63;;;0.50;;
61036;SDS011;72210;47.076;15.430;2023-12-14T05:55:04;0.60;;;0.60;;
61036;SDS011;72210;47.076;15.430;2023-12-14T05:57:31;0.57;;;0.50;;
61036;SDS011;72210;47.076;15.430;2023-12-14T05:59:58;0.60;;;0.50;;
61036;SDS011;72210;47.076;15.430;2023-12-14T06:02:25;0.50;;;0.50;;
61036;SDS011;72210;47.076;15.430;2023-12-14T06:04:53;0.50;;;0.50;;
61036;SDS011;72210;47.076;15.430;2023-12-14T06:07:22;0.70;;;0.52;;
61036;SDS011;72210;47.076;15.430;2023-12-14T06:09:50;0.75;;;0.60;;
61036;SDS011;72210;47.076;15.430;2023-12-14T06:12:17;0.70;;;0.60;;
61036;SDS011;72210;47.076;15.430;2023-12-14T06:14:45;0.70;;;0.60;;
61036;SDS011;72210;47.076;15.430;2023-12-14T06:17:12;0.60;;;0.50;;
61036;SDS011;72210;47.076;15.430;2023-12-14T06:19:40;0.60;;;0.50;;
61036;SDS011;72210;47.076;15.430;2023-12-14T06:22:07;0.70;;;0.60;;
61036;SDS011;72210;47.076;15.430;2023-12-14T06:24:36;0.70;;;0.57;;
61036;SDS011;72210;47.076;15.430;2023-12-14T06:27:04;0.50;;;0.50;;
61036;SDS011;72210;47.076;15.430;2023-12-14T06:29:31;0.85;;;0.70;;
61036;SDS011;72210;47.076;15.430;2023-12-14T06:31:58;0.50;;;0.50;;
61036;SDS011;72210;47.076;15.430;2023-12-14T06:34:25;0.60;;;0.50;;
61036;SDS011;72210;47.076;15.430;2023-12-14T06:36:53;0.68;;;0.52;;
61036;SDS011;72210;47.076;15.430;2023-12-14T06:39:22;0.70;;;0.60;;
61036;SDS011;72210;47.076;15.430;2023-12-14T06:41:56;0.90;;;0.70;;
61036;SDS011;72210;47.076;15.430;2023-12-14T06:44:23;0.70;;;0.60;;
61036;SDS011;72210;47.076;15.430;2023-12-14T06:46:50;0.50;;;0.43;;
61036;SDS011;72210;47.076;15.430;2023-12-14T06:49:18;0.60;;;0.50;;
61036;SDS011;72210;47.076;15.430;2023-12-14T06:51:46;0.77;;;0.60;;
61036;SDS011;72210;47.076;15.430;2023-12-14T06:54:13;0.60;;;0.50;;
61036;SDS011;72210;47.076;15.430;2023-12-14T06:56:40;0.70;;;0.60;;
61036;SDS011;72210;47.076;15.430;2023-12-14T06:59:09;0.65;;;0.52;;
61036;SDS011;72210;47.076;15.430;2023-12-14T07:01:37;0.50;;;0.50;;
61036;SDS011;72210;47.076;15.430;2023-12-14T07:04:04;0.60;;;0.50;;
61036;SDS011;72210;47.076;15.430;2023-12-14T07:06:31;0.70;;;0.60;;
61036;SDS011;72210;47.076;15.430;2023-12-14T07:08:59;0.60;;;0.50;;
61036;SDS011;72210;47.076;15.430;2023-12-14T07:11:26;0.60;;;0.55;;
61036;SDS011;72210;47.076;15.430;2023-12-14T07:13:53;0.65;;;0.50;;
61036;SDS011;72210;47.076;15.430;2023-12-14T07:16:22;0.70;;;0.60;;
61036;SDS011;72210;47.076;15.430;2023-12-14T07:18:50;0.60;;;0.50;;
61036;SDS011;72210;47.076;15.430;2023-12-14T07:21:18;0.93;;;0.70;;
61036;SDS011;72210;47.076;15.430;2023-12-14T07:23:45;0.80;;;0.65;;
61036;SDS011;72210;47.076;15.430;2023-12-14T07:26:12;0.70;;;0.60;;
61036;SDS011;72210;47.076;15.430;2023-12-14T07:28:40;0.85;;;0.65;;
61036;SDS011;72210;47.076;15.430;2023-12-14T07:31:08;0.68;;;0.50;;
61036;SDS011;72210;47.076;15.430;2023-12-14T07:33:38;0.80;;;0.60;;
61036;SDS011;72210;47.076;15.430;2023-12-14T07:36:05;0.60;;;0.50;;
61036;SDS011;72210;47.076;15.430;2023-12-14T07:38:33;0.60;;;0.50;;
61036;SDS011;72210;47.076;15.430;2023-12-14T07:41:00;0.60;;;0.50;;
61036;SDS011;72210;47.076;15.430;2023-12-14T07:43:27;0.60;;;0.50;;
61036;SDS011;72210;47.076;15.430;2023-12-14T07:45:55;0.60;;;0.50;;
61036;SDS011;72210;47.076;15.430;2023-12-14T07:48:23;0.60;;;0.50;;
61036;SDS011;72210;47.076;15.430;2023-12-14T07:50:51;0.70;;;0.60;;
61036;SDS011;72210;47.076;15.430;2023-12-14T07:53:19;0.73;;;0.60;;
61036;SDS011;72210;47.076;15.430;2023-12-14T07:55:46;0.50;;;0.50;;
61036;SDS011;72210;47.076;15.430;2023-12-14T07:58:13;0.70;;;0.55;;
61036;SDS011;72210;47.076;15.430;2023-12-14T08:00:41;0.60;;;0.50;;
61036;SDS011;72210;47.076;15.430;2023-12-14T08:03:08;0.50;;;0.40;;
61036;SDS011;72210;47.076;15.430;2023-12-14T08:05:35;0.70;;;0.57;;
61036;SDS011;72210;47.076;15.430;2023-12-14T08:08:05;0.63;;;0.50;;
61036;SDS011;72210;47.076;15.430;2023-12-14T08:10:33;0.60;;;0.50;;
61036;SDS011;72210;47.076;15.430;2023-12-14T08:13:00;0.70;;;0.60;;
61036;SDS011;72210;47.076;15.430;2023-12-14T08:15:27;0.75;;;0.60;;
61036;SDS011;72210;47.076;15.430;2023-12-14T08:17:54;0.50;;;0.50;;
61036;SDS011;72210;47.076;15.430;2023-12-14T08:20:22;0.80;;;0.60;;
61036;SDS011;72210;47.076;15.430;2023-12-14T08:22:49;0.57;;;0.50;;
61036;SDS011;72210;47.076;15.430;2023-12-14T08:25:18;0.90;;;0.60;;
61036;SDS011;72210;47.076;15.430;2023-12-14T08:27:46;0.60;;;0.50;;
61036;SDS011;72210;47.076;15.430;2023-12-14T08:30:13;0.70;;;0.52;;
61036;SDS011;72210;47.076;15.430;2023-12-14T08:32:41;0.60;;;0.50;;
61036;SDS011;72210;47.076;15.430;2023-12-14T08:35:09;0.70;;;0.50;;
61036;SDS011;72210;47.076;15.430;2023-12-14T08:37:37;0.70;;;0.60;;
61036;SDS011;72210;47.076;15.430;2023-12-14T08:40:07;0.70;;;0.52;;
61036;SDS011;72210;47.076;15.430;2023-12-14T08:42:37;0.45;;;0.40;;
61036;SDS011;72210;47.076;15.430;2023-12-14T08:45:05;0.73;;;0.50;;
61036;SDS011;72210;47.076;15.430;2023-12-14T08:47:37;0.70;;;0.50;;
61036;SDS011;72210;47.076;15.430;2023-12-14T08:50:05;0.47;;;0.40;;
61036;SDS011;72210;47.076;15.430;2023-12-14T08:52:33;0.50;;;0.40;;
61036;SDS011;72210;47.076;15.430;2023-12-14T08:55:01;0.70;;;0.52;;
61036;SDS011;72210;47.076;15.430;2023-12-14T08:57:28;0.70;;;0.55;;
61036;SDS011;72210;47.076;15.430;2023-12-14T08:59:57;0.60;;;0.50;;
61036;SDS011;72210;47.076;15.430;2023-12-14T09:02:24;0.60;;;0.40;;
61036;SDS011;72210;47.076;15.430;2023-12-14T09:04:52;0.70;;;0.50;;
61036;SDS011;72210;47.076;15.430;2023-12-14T09:07:20;0.60;;;0.50;;
61036;SDS011;72210;47.076;15.430;2023-12-14T09:09:47;0.70;;;0.55;;
61036;SDS011;72210;47.076;15.430;2023-12-14T09:12:14;0.60;;;0.50;;
61036;SDS011;72210;47.076;15.430;2023-12-14T09:14:41;0.50;;;0.40;;
61036;SDS011;72210;47.076;15.430;2023-12-14T09:17:11;0.50;;;0.40;;
61036;SDS011;72210;47.076;15.430;2023-12-14T09:19:38;0.55;;;0.43;;
61036;SDS011;72210;47.076;15.430;2023-12-14T09:22:06;0.60;;;0.50;;
61036;SDS011;72210;47.076;15.430;2023-12-14T09:24:33;0.60;;;0.50;;
61036;SDS011;72210;47.076;15.430;2023-12-14T09:27:00;0.73;;;0.60;;
61036;SDS011;72210;47.076;15.430;2023-12-14T09:29:28;0.63;;;0.50;;
61036;SDS011;72210;47.076;15.430;2023-12-14T09:31:56;0.70;;;0.60;;
61036;SDS011;72210;47.076;15.430;2023-12-14T09:34:25;0.70;;;0.50;;
61036;SDS011;72210;47.076;15.430;2023-12-14T09:36:52;0.88;;;0.60;;
61036;SDS011;72210;47.076;15.430;2023-12-14T09:39:22;0.70;;;0.60;;
61036;SDS011;72210;47.076;15.430;2023-12-14T09:41:50;0.80;;;0.60;;
61036;SDS011;72210;47.076;15.430;2023-12-14T09:44:17;0.60;;;0.50;;
61036;SDS011;72210;47.076;15.430;2023-12-14T09:46:45;0.60;;;0.50;;
61036;SDS011;72210;47.076;15.430;2023-12-14T09:49:13;0.63;;;0.50;;
61036;SDS011;72210;47.076;15.430;2023-12-14T09:51:42;0.60;;;0.50;;
61036;SDS011;72210;47.076;15.430;2023-12-14T09:54:09;0.70;;;0.55;;
61036;SDS011;72210;47.076;15.430;2023-12-14T09:56:45;0.63;;;0.50;;
61036;SDS011;72210;47.076;15.430;2023-12-14T09:59:12;0.60;;;0.50;;
61036;SDS011;72210;47.076;15.430;2023-12-14T10:01:42;0.60;;;0.50;;
61036;SDS011;72210;47.076;15.430;2023-12-14T10:04:13;0.60;;;0.50;;
61036;SDS011;72210;47.076;15.430;2023-12-14T10:06:44;0.52;;;0.43;;
61036;SDS011;72210;47.076;15.430;2023-12-14T10:09:11;0.73;;;0.55;;
61036;SDS011;72210;47.076;15.430;2023-12-14T10:11:39;0.57;;;0.50;;
61036;SDS011;72210;47.076;15.430;2023-12-14T10:14:17;0.70;;;0.57;;
61036;SDS011;72210;47.076;15.430;2023-12-14T10:16:46;0.60;;;0.50;;
61036;SDS011;72210;47.076;15.430;2023-12-14T10:19:16;0.50;;;0.40;;
61036;SDS011;72210;47.076;15.430;2023-12-14T10:21:45;0.60;;;0.50;;
61036;SDS011;72210;47.076;15.430;2023-12-14T10:24:14;0.63;;;0.50;;
61036;SDS011;72210;47.076;15.430;2023-12-14T10:26:46;0.57;;;0.43;;
61036;SDS011;72210;47.076;15.430;2023-12-14T10:29:15;0.43;;;0.40;;
61036;SDS011;72210;47.076;15.430;2023-12-14T10:31:42;0.60;;;0.40;;
61036;SDS011;72210;47.076;15.430;2023-12-14T10:34:11;0.65;;;0.50;;
61036;SDS011;72210;47.076;15.430;2023-12-14T10:36:38;0.75;;;0.57;;
61036;SDS011;72210;47.076;15.430;2023-12-14T10:39:07;0.68;;;0.50;;
61036;SDS011;72210;47.076;15.430;2023-12-14T10:41:38;0.80;;;0.60;;
61036;SDS011;72210;47.076;15.430;2023-12-14T10:44:06;0.63;;;0.50;;
61036;SDS011;72210;47.076;15.430;2023-12-14T10:46:55;0.73;;;0.55;;
61036;SDS011;72210;47.076;15.430;2023-12-14T10:49:25;0.50;;;0.40;;
61036;SDS011;72210;47.076;15.430;2023-12-14T10:51:56;0.70;;;0.50;;
61036;SDS011;72210;47.076;15.430;2023-12-14T10:54:28;0.80;;;0.60;;
61036;SDS011;72210;47.076;15.430;2023-12-14T10:56:58;0.50;;;0.50;;
61036;SDS011;72210;47.076;15.430;2023-12-14T10:59:26;0.63;;;0.50;;
61036;SDS011;72210;47.076;15.430;2023-12-14T11:01:54;0.47;;;0.40;;
61036;SDS011;72210;47.076;15.430;2023-12-14T11:04:22;0.47;;;0.40;;
61036;SDS011;72210;47.076;15.430;2023-12-14T11:06:49;0.60;;;0.50;;
61036;SDS011;72210;47.076;15.430;2023-12-14T11:09:21;0.40;;;0.40;;
61036;SDS011;72210;47.076;15.430;2023-12-14T11:11:56;0.50;;;0.43;;
61036;SDS011;72210;47.076;15.430;2023-12-14T11:14:25;0.35;;;0.30;;
61036;SDS011;72210;47.076;15.430;2023-12-14T11:16:54;0.50;;;0.40;;
61036;SDS011;72210;47.076;15.430;2023-12-14T11:19:24;0.55;;;0.50;;
61036;SDS011;72210;47.076;15.430;2023-12-14T11:24:41;0.60;;;0.50;;
61036;SDS011;72210;47.076;15.430;2023-12-14T11:27:11;0.70;;;0.30;;
61036;SDS011;72210;47.076;15.430;2023-12-14T11:29:41;0.35;;;0.30;;
61036;SDS011;72210;47.076;15.430;2023-12-14T11:32:09;0.57;;;0.45;;
61036;SDS011;72210;47.076;15.430;2023-12-14T11:34:38;0.30;;;0.30;;
61036;SDS011;72210;47.076;15.430;2023-12-14T11:37:06;0.40;;;0.40;;
61036;SDS011;72210;47.076;15.430;2023-12-14T11:39:33;0.30;;;0.30;;
61036;SDS011;72210;47.076;15.430;2023-12-14T11:42:01;0.40;;;0.32;;
61036;SDS011;72210;47.076;15.430;2023-12-14T11:44:31;0.30;;;0.30;;
61036;SDS011;72210;47.076;15.430;2023-12-14T11:47:00;0.32;;;0.30;;
61036;SDS011;72210;47.076;15.430;2023-12-14T11:49:28;0.45;;;0.40;;
61036;SDS011;72210;47.076;15.430;2023-12-14T11:51:56;0.43;;;0.40;;
61036;SDS011;72210;47.076;15.430;2023-12-14T11:54:24;0.60;;;0.50;;
61036;SDS011;72210;47.076;15.430;2023-12-14T11:56:53;0.40;;;0.40;;
61036;SDS011;72210;47.076;15.430;2023-12-14T11:59:20;0.50;;;0.45;;
61036;SDS011;72210;47.076;15.430;2023-12-14T12:01:58;0.30;;;0.30;;
61036;SDS011;72210;47.076;15.430;2023-12-14T12:04:26;0.50;;;0.40;;
61036;SDS011;72210;47.076;15.430;2023-12-14T12:07:01;0.50;;;0.43;;
61036;SDS011;72210;47.076;15.430;2023-12-14T12:09:36;0.40;;;0.38;;
61036;SDS011;72210;47.076;15.430;2023-12-14T12:12:08;0.30;;;0.30;;
61036;SDS011;72210;47.076;15.430;2023-12-14T12:14:36;0.40;;;0.40;;
61036;SDS011;72210;47.076;15.430;2023-12-14T12:17:05;0.30;;;0.30;;
61036;SDS011;72210;47.076;15.430;2023-12-14T12:19:33;0.30;;;0.30;;
61036;SDS011;72210;47.076;15.430;2023-12-14T12:22:02;0.30;;;0.30;;
61036;SDS011;72210;47.076;15.430;2023-12-14T12:24:30;0.60;;;0.50;;
61036;SDS011;72210;47.076;15.430;2023-12-14T12:27:00;0.40;;;0.40;;
61036;SDS011;72210;47.076;15.430;2023-12-14T12:29:28;0.32;;;0.30;;
61036;SDS011;72210;47.076;15.430;2023-12-14T12:31:55;0.40;;;0.38;;
61036;SDS011;72210;47.076;15.430;2023-12-14T12:34:30;0.40;;;0.40;;
61036;SDS011;72210;47.076;15.430;2023-12-14T12:36:59;0.32;;;0.30;;
61036;SDS011;72210;47.076;15.430;2023-12-14T12:39:28;0.50;;;0.40;;
61036;SDS011;72210;47.076;15.430;2023-12-14T12:41:57;0.30;;;0.30;;
61036;SDS011;72210;47.076;15.430;2023-12-14T12:44:25;0.50;;;0.45;;
61036;SDS011;72210;47.076;15.430;2023-12-14T12:46:53;0.40;;;0.40;;
61036;SDS011;72210;47.076;15.430;2023-12-14T12:49:35;0.50;;;0.40;;
61036;SDS011;72210;47.076;15.430;2023-12-14T12:52:04;0.50;;;0.40;;
61036;SDS011;72210;47.076;15.430;2023-12-14T12:54:32;0.50;;;0.30;;
61036;SDS011;72210;47.076;15.430;2023-12-14T12:57:00;0.52;;;0.40;;
61036;SDS011;72210;47.076;15.430;2023-12-14T12:59:27;0.40;;;0.38;;
61036;SDS011;72210;47.076;15.430;2023-12-14T13:01:56;0.50;;;0.45;;
61036;SDS011;72210;47.076;15.430;2023-12-14T13:04:24;0.55;;;0.50;;
61036;SDS011;72210;47.076;15.430;2023-12-14T13:06:56;0.60;;;0.50;;
61036;SDS011;72210;47.076;15.430;2023-12-14T13:09:23;0.40;;;0.40;;
61036;SDS011;72210;47.076;15.430;2023-12-14T13:11:52;0.52;;;0.40;;
61036;SDS011;72210;47.076;15.430;2023-12-14T13:14:19;0.50;;;0.30;;
61036;SDS011;72210;47.076;15.430;2023-12-14T13:16:47;0.40;;;0.40;;
61036;SDS011;72210;47.076;15.430;2023-12-14T13:19:16;0.65;;;0.35;;
61036;SDS011;72210;47.076;15.430;2023-12-14T13:21:45;0.40;;;0.38;;
61036;SDS011;72210;47.076;15.430;2023-12-14T13:24:15;0.73;;;0.40;;
61036;SDS011;72210;47.076;15.430;2023-12-14T13:26:43;0.52;;;0.43;;
61036;SDS011;72210;47.076;15.430;2023-12-14T13:29:11;0.43;;;0.40;;
61036;SDS011;72210;47.076;15.430;2023-12-14T13:31:38;0.30;;;0.30;;
61036;SDS011;72210;47.076;15.430;2023-12-14T13:34:06;0.30;;;0.30;;
61036;SDS011;72210;47.076;15.430;2023-12-14T13:36:33;0.60;;;0.40;;
61036;SDS011;72210;47.076;15.430;2023-12-14T13:39:04;0.40;;;0.40;;
61036;SDS011;72210;47.076;15.430;2023-12-14T13:41:33;0.40;;;0.40;;
61036;SDS011;72210;47.076;15.430;2023-12-14T13:44:15;0.60;;;0.50;;
61036;SDS011;72210;47.076;15.430;2023-12-14T13:46:44;0.40;;;0.40;;
61036;SDS011;72210;47.076;15.430;2023-12-14T13:49:11;0.30;;;0.30;;
61036;SDS011;72210;47.076;15.430;2023-12-14T13:51:38;0.40;;;0.40;;
61036;SDS011;72210;47.076;15.430;2023-12-14T13:54:06;0.40;;;0.40;;
61036;SDS011;72210;47.076;15.430;2023-12-14T13:56:35;0.40;;;0.40;;
61036;SDS011;72210;47.076;15.430;2023-12-14T13:59:03;0.40;;;0.40;;
61036;SDS011;72210;47.076;15.430;2023-12-14T14:01:31;0.77;;;0.40;;
61036;SDS011;72210;47.076;15.430;2023-12-14T14:03:59;0.60;;;0.40;;
61036;SDS011;72210;47.076;15.430;2023-12-14T14:06:27;0.40;;;0.40;;
61036;SDS011;72210;47.076;15.430;2023-12-14T14:08:55;0.32;;;0.30;;
61036;SDS011;72210;47.076;15.430;2023-12-14T14:11:22;0.43;;;0.40;;
61036;SDS011;72210;47.076;15.430;2023-12-14T14:13:52;0.50;;;0.40;;
61036;SDS011;72210;47.076;15.430;2023-12-14T14:16:20;0.40;;;0.30;;
61036;SDS011;72210;47.076;15.430;2023-12-14T14:18:50;0.60;;;0.43;;
61036;SDS011;72210;47.076;15.430;2023-12-14T14:21:18;0.40;;;0.35;;
61036;SDS011;72210;47.076;15.430;2023-12-14T14:23:45;0.40;;;0.35;;
61036;SDS011;72210;47.076;15.430;2023-12-14T14:26:14;0.38;;;0.30;;
61036;SDS011;72210;47.076;15.430;2023-12-14T14:28:41;0.63;;;0.30;;
61036;SDS011;72210;47.076;15.430;2023-12-14T14:31:10;0.40;;;0.40;;
61036;SDS011;72210;47.076;15.430;2023-12-14T14:33:38;0.50;;;0.40;;
61036;SDS011;72210;47.076;15.430;2023-12-14T14:36:05;0.60;;;0.47;;
61036;SDS011;72210;47.076;15.430;2023-12-14T14:38:33;0.40;;;0.40;;
61036;SDS011;72210;47.076;15.430;2023-12-14T14:41:00;0.40;;;0.40;;
61036;SDS011;72210;47.076;15.430;2023-12-14T14:43:29;0.43;;;0.35;;